Time;durP1;ratioP1;P1;durP2;ratioP2;P2;SDS_P1;SDS_P2;PMS_P1;PMS_P2;Temp;Humidity;BMP_temperature;BMP_pressure;BME280_temperature;BME280_humidity;BME280_pressure;Samples;Min_cycle;Max_cycle;Signal;HPM_P1;HPM_P2
2022/08/13 00:00:58;;;;;;;5.77;3.63;;;23.90;68.70;;;;;;6276268;22;20514;-77
2022/08/13 00:03:26;;;;;;;4.80;3.23;;;23.90;68.90;;;;;;6277043;22;20453;-78
2022/08/13 00:05:54;;;;;;;8.03;3.57;;;23.90;69.00;;;;;;6276107;22;20433;-75
2022/08/13 00:08:27;;;;;;;6.80;3.67;;;23.90;69.00;;;;;;6275307;22;20457;-76
2022/08/13 00:10:54;;;;;;;4.70;3.80;;;23.80;69.00;;;;;;6273657;22;20529;-75
2022/08/13 00:13:20;;;;;;;3.60;3.00;;;23.80;69.00;;;;;;6275240;22;20430;-75
2022/08/13 00:15:48;;;;;;;5.00;3.80;;;23.80;69.00;;;;;;6275928;22;20430;-78
2022/08/13 00:18:18;;;;;;;3.27;2.97;;;23.80;69.10;;;;;;6275326;22;20429;-79
2022/08/13 00:20:48;;;;;;;4.83;3.97;;;23.90;69.30;;;;;;6277259;22;20487;-77
2022/08/13 00:23:16;;;;;;;4.37;3.50;;;23.80;69.20;;;;;;6242368;22;20790;-74
2022/08/13 00:25:44;;;;;;;6.77;4.00;;;23.90;69.40;;;;;;6269109;22;20496;-77
2022/08/13 00:28:11;;;;;;;4.33;3.80;;;23.90;69.40;;;;;;6275705;22;20442;-77
2022/08/13 00:30:38;;;;;;;4.43;4.00;;;23.90;69.40;;;;;;6276066;22;20804;-76
2022/08/13 00:33:10;;;;;;;3.80;3.50;;;23.90;69.50;;;;;;6275224;22;20668;-75
2022/08/13 00:35:38;;;;;;;4.80;3.40;;;23.90;69.50;;;;;;6239501;22;20434;-77
2022/08/13 00:38:08;;;;;;;4.03;3.70;;;23.80;69.50;;;;;;6272352;22;20485;-76
2022/08/13 00:40:35;;;;;;;7.90;3.83;;;23.80;69.70;;;;;;6276943;22;20448;-78
2022/08/13 00:43:05;;;;;;;3.87;3.57;;;23.80;69.80;;;;;;6276569;22;20726;-77
2022/08/13 00:45:33;;;;;;;6.33;4.13;;;23.80;69.90;;;;;;6274805;22;20434;-76
2022/08/13 00:50:47;;;;;;;8.10;4.33;;;23.70;70.10;;;;;;6275956;22;21343;-76
2022/08/13 00:53:17;;;;;;;5.83;4.23;;;23.70;70.30;;;;;;6276787;22;20434;-74
2022/08/13 00:55:48;;;;;;;4.20;3.90;;;23.70;70.40;;;;;;6275936;22;20517;-79
2022/08/13 00:58:16;;;;;;;7.03;3.70;;;23.70;70.50;;;;;;6275814;22;20438;-77
2022/08/13 01:00:47;;;;;;;4.57;4.17;;;23.70;70.60;;;;;;6276179;22;20522;-77
2022/08/13 01:03:15;;;;;;;7.20;4.63;;;23.70;70.60;;;;;;6276231;22;20430;-76
2022/08/13 01:05:46;;;;;;;7.17;3.97;;;23.70;71.60;;;;;;6274920;22;20470;-76
2022/08/13 01:08:16;;;;;;;4.60;3.73;;;23.70;70.80;;;;;;6271933;22;20434;-78
2022/08/13 01:10:45;;;;;;;8.47;5.17;;;23.70;71.00;;;;;;6274678;22;20430;-75
2022/08/13 01:13:13;;;;;;;3.93;3.50;;;23.60;71.70;;;;;;6276289;22;20438;-75
2022/08/13 01:15:42;;;;;;;4.00;3.70;;;23.60;70.90;;;;;;6273426;22;20434;-75
2022/08/13 01:18:13;;;;;;;5.60;4.43;;;23.60;70.90;;;;;;6276122;22;20937;-77
2022/08/13 01:20:48;;;;;;;4.43;4.03;;;23.60;71.00;;;;;;6275627;22;20438;-76
2022/08/13 01:23:20;;;;;;;3.67;3.33;;;23.60;71.90;;;;;;6276358;22;20430;-76
2022/08/13 01:25:47;;;;;;;3.63;3.33;;;23.60;71.20;;;;;;6274435;22;20437;-79
2022/08/13 01:28:18;;;;;;;5.50;3.70;;;23.60;71.20;;;;;;6275300;22;20442;-76
2022/08/13 01:30:49;;;;;;;3.67;3.47;;;23.60;71.20;;;;;;6232770;22;20488;-77
2022/08/13 01:33:17;;;;;;;5.60;4.00;;;23.60;71.30;;;;;;6275989;22;20441;-77
2022/08/13 01:35:44;;;;;;;6.47;4.10;;;23.60;71.50;;;;;;6274841;22;20445;-79
2022/08/13 01:38:13;;;;;;;4.70;3.67;;;23.60;71.60;;;;;;6275716;22;20902;-78
2022/08/13 01:40:42;;;;;;;4.80;3.77;;;23.50;71.60;;;;;;6275508;22;20788;-77
2022/08/13 01:43:09;;;;;;;4.80;4.40;;;23.50;71.60;;;;;;6275753;22;20495;-77
2022/08/13 01:45:38;;;;;;;4.80;3.67;;;23.50;71.90;;;;;;6275058;22;20913;-76
2022/08/13 01:50:49;;;;;;;3.87;3.57;;;23.40;72.10;;;;;;6275241;22;20830;-77
2022/08/13 01:53:18;;;;;;;8.07;6.20;;;23.40;72.20;;;;;;6274919;22;20517;-76
2022/08/13 01:55:48;;;;;;;4.60;4.20;;;23.40;72.50;;;;;;6274887;22;20438;-77
2022/08/13 02:01:02;;;;;;;4.67;4.27;;;23.40;72.70;;;;;;6243354;22;20432;-75
2022/08/13 02:03:30;;;;;;;8.27;5.07;;;23.30;72.70;;;;;;6275170;22;20418;-77
2022/08/13 02:05:58;;;;;;;3.80;3.50;;;23.30;72.80;;;;;;6275836;22;20491;-76
2022/08/13 02:08:26;;;;;;;7.53;3.93;;;23.30;72.90;;;;;;6271278;22;20457;-78
2022/08/13 02:10:56;;;;;;;5.90;3.80;;;23.30;73.10;;;;;;6273068;22;20437;-77
2022/08/13 02:13:29;;;;;;;3.90;3.37;;;23.30;73.20;;;;;;6273056;22;20442;-77
2022/08/13 02:15:57;;;;;;;4.80;3.97;;;23.30;73.20;;;;;;6275493;22;20509;-77
2022/08/13 02:18:26;;;;;;;4.87;3.33;;;23.20;73.20;;;;;;6274516;22;20469;-78
2022/08/13 02:20:56;;;;;;;4.63;3.77;;;23.20;73.50;;;;;;6275877;22;20433;-76
2022/08/13 02:23:25;;;;;;;6.00;3.97;;;23.20;73.60;;;;;;6274616;22;20426;-77
2022/08/13 02:25:55;;;;;;;3.93;3.60;;;23.20;73.70;;;;;;6275647;22;20476;-77
2022/08/13 02:28:22;;;;;;;5.40;3.20;;;23.20;73.80;;;;;;6275000;22;20434;-77
2022/08/13 02:30:56;;;;;;;3.83;3.53;;;23.10;73.90;;;;;;6275893;22;20449;-75
2022/08/13 02:33:24;;;;;;;4.13;3.73;;;23.20;74.00;;;;;;6274918;22;20434;-77
2022/08/13 02:35:51;;;;;;;4.13;3.83;;;23.10;73.90;;;;;;6275808;22;20965;-78
2022/08/13 02:38:19;;;;;;;5.90;3.70;;;23.10;73.90;;;;;;6274516;22;20430;-77
2022/08/13 02:43:33;;;;;;;4.10;3.80;;;23.20;74.20;;;;;;6275391;22;20734;-76
2022/08/13 02:46:02;;;;;;;5.20;3.73;;;23.10;74.20;;;;;;6275449;22;20437;-75
2022/08/13 02:48:29;;;;;;;4.13;3.83;;;23.10;74.30;;;;;;6274790;22;20484;-76
2022/08/13 02:50:58;;;;;;;4.30;3.90;;;23.10;74.30;;;;;;6275822;22;20460;-75
2022/08/13 02:53:25;;;;;;;4.63;4.23;;;23.10;74.40;;;;;;6274744;22;20505;-76
2022/08/13 02:55:53;;;;;;;6.70;3.70;;;23.00;74.50;;;;;;6274750;22;20430;-75
2022/08/13 02:58:23;;;;;;;5.90;4.97;;;23.00;74.70;;;;;;6275106;22;20434;-76
2022/08/13 03:00:53;;;;;;;6.43;5.77;;;23.00;74.70;;;;;;6272537;22;20581;-77
2022/08/13 03:03:20;;;;;;;6.00;4.83;;;22.90;74.80;;;;;;6273570;22;20454;-78
2022/08/13 03:05:47;;;;;;;5.43;4.47;;;22.90;75.00;;;;;;6274734;22;20866;-77
2022/08/13 03:08:16;;;;;;;4.53;4.20;;;22.90;75.20;;;;;;6275107;22;20434;-77
2022/08/13 03:10:43;;;;;;;5.27;4.00;;;22.90;75.20;;;;;;6275178;22;20434;-76
2022/08/13 03:13:17;;;;;;;4.93;4.40;;;22.90;75.30;;;;;;6275588;22;22385;-78
2022/08/13 03:15:45;;;;;;;3.53;3.23;;;22.80;75.30;;;;;;6274352;22;20437;-77
2022/08/13 03:18:14;;;;;;;6.10;4.17;;;22.80;75.30;;;;;;6275779;22;20786;-77
2022/08/13 03:20:41;;;;;;;4.37;3.97;;;22.80;75.60;;;;;;6274141;22;20689;-77
2022/08/13 03:23:09;;;;;;;4.27;3.87;;;22.80;75.60;;;;;;6275766;22;20430;-76
2022/08/13 03:25:37;;;;;;;4.53;4.13;;;22.80;75.70;;;;;;6274442;22;20438;-77
2022/08/13 03:28:06;;;;;;;5.30;4.80;;;22.80;75.70;;;;;;6275037;22;20461;-77
2022/08/13 03:30:34;;;;;;;4.60;4.10;;;22.80;75.80;;;;;;6274683;22;20506;-75
2022/08/13 03:33:06;;;;;;;4.23;3.83;;;22.80;76.00;;;;;;6274571;22;20564;-78
2022/08/13 03:35:37;;;;;;;4.87;4.40;;;22.80;76.10;;;;;;6274662;22;20438;-76
2022/08/13 03:38:05;;;;;;;5.17;4.67;;;22.70;76.10;;;;;;6275890;22;20453;-77
2022/08/13 03:43:14;;;;;;;5.60;3.93;;;22.70;76.30;;;;;;6274266;22;20471;-78
2022/08/13 03:45:42;;;;;;;4.63;4.33;;;22.70;76.40;;;;;;6274706;22;20441;-77
2022/08/13 03:48:09;;;;;;;3.40;3.10;;;22.70;76.40;;;;;;6275435;22;20429;-77
2022/08/13 03:50:38;;;;;;;3.87;3.57;;;22.70;76.50;;;;;;6273659;22;20509;-79
2022/08/13 03:53:06;;;;;;;5.50;4.90;;;22.80;76.70;;;;;;6275040;22;20417;-75
2022/08/13 03:55:33;;;;;;;4.30;3.90;;;22.80;76.70;;;;;;6273868;22;20441;-77
2022/08/13 03:58:01;;;;;;;4.20;3.90;;;22.80;76.80;;;;;;6274927;22;20434;-76
2022/08/13 04:00:29;;;;;;;4.43;4.03;;;22.80;76.80;;;;;;6274901;22;20444;-77
2022/08/13 04:02:56;;;;;;;5.17;4.30;;;22.80;76.90;;;;;;6274274;22;20435;-76
2022/08/13 04:05:23;;;;;;;4.00;3.70;;;22.80;76.90;;;;;;6274922;22;20445;-76
2022/08/13 04:07:51;;;;;;;4.07;3.40;;;22.80;77.00;;;;;;6271235;22;20437;-76
2022/08/13 04:10:19;;;;;;;5.87;3.97;;;22.80;77.00;;;;;;6272169;22;20430;-76
2022/08/13 04:12:46;;;;;;;5.73;4.60;;;22.80;77.00;;;;;;6273021;22;20449;-75
2022/08/13 04:15:13;;;;;;;6.40;4.23;;;22.80;77.10;;;;;;6274220;22;20465;-77
2022/08/13 04:17:40;;;;;;;6.00;4.83;;;22.80;77.20;;;;;;6273259;22;20461;-76
2022/08/13 04:20:10;;;;;;;5.87;5.37;;;22.80;77.30;;;;;;6274014;22;20436;-77
2022/08/13 04:22:38;;;;;;;4.33;4.03;;;22.80;77.30;;;;;;6273247;22;20434;-76
2022/08/13 04:25:08;;;;;;;5.63;4.73;;;22.80;77.30;;;;;;6276177;22;20507;-75
2022/08/13 04:27:35;;;;;;;5.67;4.83;;;22.80;77.30;;;;;;6274978;22;20798;-76
2022/08/13 04:30:05;;;;;;;4.27;3.80;;;22.80;77.40;;;;;;6276490;22;20757;-77
2022/08/13 04:32:41;;;;;;;4.93;4.43;;;22.80;77.40;;;;;;6276454;22;20461;-78
2022/08/13 04:35:09;;;;;;;5.07;4.63;;;22.80;77.60;;;;;;6284808;22;20459;-74
2022/08/13 04:37:37;;;;;;;8.23;4.77;;;22.80;77.60;;;;;;6277063;22;20441;-75
2022/08/13 04:40:07;;;;;;;5.20;4.70;;;22.80;77.80;;;;;;6277990;22;20959;-77
2022/08/13 04:42:45;;;;;;;6.20;4.57;;;22.80;77.80;;;;;;6277318;22;20762;-77
2022/08/13 04:45:14;;;;;;;5.50;5.10;;;22.70;77.80;;;;;;6278187;22;20461;-77
2022/08/13 04:47:42;;;;;;;5.30;4.63;;;22.70;77.80;;;;;;6277511;22;20430;-75
2022/08/13 04:50:10;;;;;;;5.37;4.93;;;22.80;78.00;;;;;;6277976;22;20448;-76
2022/08/13 04:52:37;;;;;;;4.60;4.20;;;22.70;78.00;;;;;;6276328;22;20434;-78
2022/08/13 04:55:06;;;;;;;4.47;4.07;;;22.70;78.10;;;;;;6277744;22;20508;-78
2022/08/13 04:57:39;;;;;;;4.40;4.10;;;22.80;78.20;;;;;;6276627;22;20442;-76
2022/08/13 05:00:07;;;;;;;6.70;4.43;;;22.80;78.20;;;;;;6277670;22;20462;-78
2022/08/13 05:02:39;;;;;;;4.70;4.30;;;22.80;78.30;;;;;;6250959;22;20441;-76
2022/08/13 05:05:07;;;;;;;4.90;4.40;;;22.80;78.30;;;;;;6277462;22;20434;-78
2022/08/13 05:07:34;;;;;;;4.50;4.20;;;22.80;78.40;;;;;;6276336;22;20438;-75
2022/08/13 05:10:01;;;;;;;5.20;4.87;;;22.80;78.50;;;;;;6277765;22;20437;-77
2022/08/13 05:12:28;;;;;;;4.67;4.27;;;22.80;78.50;;;;;;6277302;22;20745;-77
2022/08/13 05:14:56;;;;;;;6.87;4.90;;;22.80;78.40;;;;;;6277048;22;20450;-75
2022/08/13 05:17:25;;;;;;;4.10;3.80;;;22.90;78.60;;;;;;6276790;22;20438;-75
2022/08/13 05:19:52;;;;;;;4.67;4.20;;;22.90;78.60;;;;;;6277578;22;20966;-77
2022/08/13 05:22:23;;;;;;;3.80;3.50;;;22.90;78.60;;;;;;6277579;22;20462;-76
2022/08/13 05:24:51;;;;;;;5.23;4.73;;;22.90;78.70;;;;;;6276895;22;20422;-77
2022/08/13 05:27:19;;;;;;;7.00;4.50;;;22.90;79.00;;;;;;6277523;22;20438;-76
2022/08/13 05:29:46;;;;;;;5.40;5.00;;;23.00;79.20;;;;;;6276828;22;20457;-78
2022/08/13 05:32:15;;;;;;;5.77;5.27;;;23.00;79.10;;;;;;6277420;22;20438;-76
2022/08/13 05:34:42;;;;;;;5.70;5.30;;;23.00;79.10;;;;;;6276955;22;20438;-76
2022/08/13 05:37:15;;;;;;;4.40;4.10;;;23.10;79.20;;;;;;6277250;22;20522;-76
2022/08/13 05:39:43;;;;;;;5.40;4.50;;;23.10;79.20;;;;;;6276441;22;20516;-76
2022/08/13 05:42:10;;;;;;;5.53;4.90;;;23.20;79.30;;;;;;6277136;22;20506;-77
2022/08/13 05:44:37;;;;;;;4.83;4.40;;;23.20;79.40;;;;;;6276104;22;20487;-76
2022/08/13 05:47:05;;;;;;;4.87;4.43;;;23.30;79.30;;;;;;6277016;22;20509;-78
2022/08/13 05:49:34;;;;;;;6.03;5.47;;;23.30;79.00;;;;;;6276363;22;20947;-76
2022/08/13 05:52:01;;;;;;;6.70;4.53;;;23.40;79.00;;;;;;6276997;22;20426;-78
2022/08/13 05:54:30;;;;;;;5.53;3.97;;;23.40;78.90;;;;;;6276428;22;20437;-76
2022/08/13 05:56:57;;;;;;;5.87;5.00;;;23.50;78.70;;;;;;6276326;22;20721;-77
2022/08/13 06:05:00;;;;;;;5.47;4.97;;;23.80;78.30;;;;;;6277269;22;20437;-79
2022/08/13 06:07:27;;;;;;;6.23;5.53;;;23.90;78.30;;;;;;6276566;22;20466;-76
2022/08/13 06:09:54;;;;;;;4.70;4.40;;;23.90;78.10;;;;;;6277166;22;20458;-77
2022/08/13 06:12:21;;;;;;;5.30;4.90;;;24.00;78.00;;;;;;6276215;22;20949;-77
2022/08/13 06:14:50;;;;;;;4.17;3.87;;;24.10;78.00;;;;;;6276539;22;20430;-76
2022/08/13 06:17:18;;;;;;;4.60;4.30;;;24.20;78.20;;;;;;6275773;22;20926;-75
2022/08/13 06:20:04;;;;;;;11.33;4.37;;;24.20;78.00;;;;;;6277581;22;20483;-75
2022/08/13 06:22:34;;;;;;;4.23;3.90;;;24.20;77.90;;;;;;6244592;22;20794;-77
2022/08/13 06:25:10;;;;;;;5.63;4.67;;;24.20;77.90;;;;;;6269382;22;20810;-78
2022/08/13 06:27:38;;;;;;;4.43;4.13;;;24.20;77.90;;;;;;6276703;22;20429;-76
2022/08/13 06:30:06;;;;;;;4.67;4.27;;;24.30;78.00;;;;;;6276309;22;20686;-76
2022/08/13 06:32:35;;;;;;;4.70;4.30;;;24.30;77.80;;;;;;6276319;22;20797;-79
2022/08/13 06:35:04;;;;;;;5.73;5.07;;;24.40;77.80;;;;;;6277573;22;20452;-77
2022/08/13 06:37:31;;;;;;;5.27;4.77;;;24.40;77.80;;;;;;6276280;22;20437;-77
2022/08/13 06:40:01;;;;;;;4.20;3.90;;;24.40;77.60;;;;;;6276919;22;20460;-78
2022/08/13 06:42:29;;;;;;;5.00;4.60;;;24.50;77.80;;;;;;6274738;22;20437;-79
2022/08/13 06:44:58;;;;;;;5.60;4.70;;;24.50;77.90;;;;;;6276164;22;20449;-78
2022/08/13 06:47:29;;;;;;;5.30;4.80;;;24.60;77.80;;;;;;6275841;22;20796;-77
2022/08/13 06:49:56;;;;;;;6.00;4.57;;;24.60;77.80;;;;;;6276137;22;20440;-77
2022/08/13 06:52:23;;;;;;;5.40;4.80;;;24.60;77.60;;;;;;6275487;22;20434;-77
2022/08/13 06:54:50;;;;;;;6.50;5.23;;;24.70;77.60;;;;;;6276475;22;20453;-77
2022/08/13 06:57:22;;;;;;;4.60;4.20;;;24.70;77.50;;;;;;6276188;22;20460;-77
2022/08/13 06:59:50;;;;;;;5.13;4.30;;;24.80;77.50;;;;;;6275826;22;20430;-78
2022/08/13 07:02:21;;;;;;;4.00;3.73;;;24.80;77.30;;;;;;6276151;22;20509;-78
2022/08/13 07:04:49;;;;;;;4.93;4.53;;;24.90;77.50;;;;;;6275321;22;20492;-76
2022/08/13 07:07:17;;;;;;;5.10;4.67;;;24.90;77.30;;;;;;6276346;22;20445;-75
2022/08/13 07:09:47;;;;;;;6.93;4.40;;;25.00;77.50;;;;;;6275418;22;20433;-79
2022/08/13 07:12:15;;;;;;;5.97;5.47;;;25.00;77.10;;;;;;6276300;22;20430;-77
2022/08/13 07:14:45;;;;;;;5.40;5.00;;;25.10;77.30;;;;;;6275799;22;20525;-76
2022/08/13 07:17:12;;;;;;;5.40;4.90;;;25.20;77.10;;;;;;6276201;22;20746;-76
2022/08/13 07:19:48;;;;;;;5.70;5.23;;;25.30;76.90;;;;;;6275523;22;20434;-77
2022/08/13 07:22:16;;;;;;;5.70;5.20;;;25.30;76.60;;;;;;6276035;22;20429;-77
2022/08/13 07:24:50;;;;;;;4.17;3.90;;;25.40;76.70;;;;;;6273338;22;20430;-77
2022/08/13 07:27:17;;;;;;;5.03;4.63;;;25.40;76.40;;;;;;6274964;22;20804;-78
2022/08/13 07:29:49;;;;;;;6.23;5.67;;;25.50;76.50;;;;;;6275300;22;20517;-77
2022/08/13 07:32:20;;;;;;;5.80;5.40;;;25.60;76.30;;;;;;6276100;22;20775;-76
2022/08/13 07:34:47;;;;;;;4.50;4.10;;;25.60;76.10;;;;;;6275387;22;20469;-76
2022/08/13 07:37:21;;;;;;;4.60;4.30;;;25.70;76.10;;;;;;6276438;22;20438;-76
2022/08/13 07:39:51;;;;;;;5.40;5.00;;;25.90;76.30;;;;;;6275663;22;20732;-76
2022/08/13 07:42:21;;;;;;;4.97;4.53;;;26.00;76.70;;;;;;6276547;22;20521;-77
2022/08/13 07:44:52;;;;;;;5.30;4.90;;;26.10;76.40;;;;;;6275600;22;20902;-75
2022/08/13 07:47:20;;;;;;;5.27;4.77;;;26.20;76.00;;;;;;6275973;22;20501;-77
2022/08/13 07:49:47;;;;;;;4.57;4.27;;;26.30;75.80;;;;;;6275988;22;20917;-78
2022/08/13 07:52:14;;;;;;;4.80;4.50;;;26.40;75.60;;;;;;6276238;22;20826;-77
2022/08/13 07:54:43;;;;;;;4.87;4.43;;;26.50;75.70;;;;;;6275424;22;20438;-76
2022/08/13 07:57:10;;;;;;;4.63;4.27;;;26.60;75.80;;;;;;6275956;22;20438;-77
2022/08/13 07:59:38;;;;;;;4.90;4.50;;;26.60;75.60;;;;;;6275519;22;20755;-79
2022/08/13 08:02:07;;;;;;;6.13;5.63;;;26.60;75.60;;;;;;6276822;22;20736;-80
2022/08/13 08:04:37;;;;;;;4.97;4.57;;;26.70;75.20;;;;;;6275454;22;20449;-76
2022/08/13 08:07:04;;;;;;;5.33;4.93;;;26.80;74.90;;;;;;6276066;22;20448;-76
2022/08/13 08:09:35;;;;;;;5.13;4.73;;;26.80;74.80;;;;;;6276766;22;20513;-77
2022/08/13 08:14:49;;;;;;;5.00;4.60;;;26.80;75.10;;;;;;6277676;22;20511;-77
2022/08/13 08:17:18;;;;;;;4.70;4.30;;;26.90;74.60;;;;;;6277959;22;20437;-75
2022/08/13 08:19:47;;;;;;;8.33;4.93;;;26.90;74.30;;;;;;6276898;22;20461;-77
2022/08/13 08:22:15;;;;;;;5.10;4.63;;;26.90;74.30;;;;;;6278070;22;20448;-78
2022/08/13 08:24:48;;;;;;;5.33;4.87;;;26.80;74.30;;;;;;6277159;22;20514;-78
2022/08/13 08:27:16;;;;;;;4.80;4.40;;;26.80;74.70;;;;;;6277876;22;20438;-78
2022/08/13 08:29:44;;;;;;;4.50;4.20;;;26.80;74.50;;;;;;6277466;22;20438;-78
2022/08/13 08:32:12;;;;;;;5.13;4.53;;;26.80;75.00;;;;;;6277954;22;20461;-77
2022/08/13 08:34:44;;;;;;;5.17;4.77;;;26.80;75.90;;;;;;6277166;22;20434;-78
2022/08/13 08:42:35;;;;;;;4.97;4.57;;;26.70;76.30;;;;;;6278096;22;20438;-76
2022/08/13 08:42:50;;;;;;;4.33;4.03;;;26.80;75.90;;;;;;6277558;22;20967;-77
2022/08/13 08:45:20;;;;;;;5.00;4.50;;;26.70;76.30;;;;;;6277785;22;20480;-77
2022/08/13 08:47:48;;;;;;;5.20;4.80;;;26.80;75.80;;;;;;6276939;22;20438;-77
2022/08/13 08:50:18;;;;;;;4.73;4.43;;;26.80;75.50;;;;;;6277800;22;20487;-76
2022/08/13 08:55:35;;;;;;;5.63;5.17;;;26.90;74.80;;;;;;6278079;22;20796;-78
2022/08/13 08:58:04;;;;;;;7.70;4.70;;;26.90;74.40;;;;;;6277215;22;20921;-79
2022/08/13 09:00:38;;;;;;;5.30;5.00;;;26.90;74.30;;;;;;6277041;22;20914;-76
2022/08/13 09:03:07;;;;;;;5.63;5.23;;;26.90;74.20;;;;;;6276298;22;20456;-78
2022/08/13 09:05:35;;;;;;;5.90;5.30;;;27.10;74.30;;;;;;6277388;22;20484;-77
2022/08/13 09:08:06;;;;;;;5.90;5.50;;;27.10;74.40;;;;;;6277015;22;20446;-78
2022/08/13 09:10:35;;;;;;;7.40;6.80;;;27.20;74.50;;;;;;6277588;22;21056;-77
2022/08/13 09:13:04;;;;;;;6.57;6.07;;;27.30;74.50;;;;;;6277237;22;20703;-78
2022/08/13 09:15:33;;;;;;;8.67;6.33;;;27.40;74.40;;;;;;6277320;22;20487;-77
2022/08/13 09:18:04;;;;;;;7.43;6.73;;;27.50;74.40;;;;;;6244688;22;20509;-76
2022/08/13 09:20:33;;;;;;;6.77;6.03;;;27.50;74.50;;;;;;6269187;22;20434;-77
2022/08/13 09:23:07;;;;;;;6.80;6.30;;;27.70;74.30;;;;;;6274228;22;20434;-76
2022/08/13 09:25:35;;;;;;;6.53;6.03;;;27.70;74.10;;;;;;6277440;22;20909;-77
2022/08/13 09:28:03;;;;;;;7.97;6.40;;;27.70;74.20;;;;;;6276006;22;20809;-76
2022/08/13 09:30:31;;;;;;;6.43;6.00;;;27.70;74.40;;;;;;6276343;22;20525;-75
2022/08/13 09:33:00;;;;;;;7.50;6.70;;;27.80;74.60;;;;;;6276046;22;20438;-75
2022/08/13 09:35:28;;;;;;;6.90;6.40;;;27.80;74.60;;;;;;6276237;22;20465;-76
2022/08/13 09:37:57;;;;;;;8.20;7.30;;;27.80;74.60;;;;;;6276862;22;20928;-77
2022/08/13 09:40:32;;;;;;;8.67;6.90;;;27.90;74.80;;;;;;6277209;22;20501;-77
2022/08/13 09:43:02;;;;;;;8.20;7.50;;;27.80;74.60;;;;;;6276437;22;20492;-77
2022/08/13 09:45:33;;;;;;;8.50;7.07;;;27.90;74.70;;;;;;6276823;22;20426;-78
2022/08/13 09:48:02;;;;;;;7.60;6.90;;;28.00;74.50;;;;;;6276501;22;20445;-76
2022/08/13 09:50:29;;;;;;;6.73;6.23;;;28.00;74.50;;;;;;6277189;22;20434;-77
2022/08/13 09:52:57;;;;;;;7.07;6.47;;;28.00;74.30;;;;;;6276411;22;20491;-77
2022/08/13 09:55:25;;;;;;;7.30;6.60;;;28.10;74.40;;;;;;6276578;22;20452;-77
2022/08/13 09:57:55;;;;;;;8.87;6.47;;;28.10;74.30;;;;;;6276221;22;20910;-77
2022/08/13 10:00:24;;;;;;;7.53;6.70;;;28.10;74.40;;;;;;6276870;22;20430;-78
2022/08/13 10:02:56;;;;;;;8.07;7.00;;;28.10;74.40;;;;;;6276484;22;20422;-76
2022/08/13 10:05:25;;;;;;;6.03;5.60;;;28.00;73.40;;;;;;6276840;22;20446;-76
2022/08/13 10:07:53;;;;;;;6.60;5.93;;;28.00;73.60;;;;;;6276325;22;20418;-77
2022/08/13 10:10:22;;;;;;;6.37;5.77;;;27.90;73.20;;;;;;6276873;22;20493;-76
2022/08/13 10:12:52;;;;;;;6.07;5.57;;;27.90;73.60;;;;;;6276258;22;20505;-78
2022/08/13 10:15:19;;;;;;;7.07;6.40;;;27.90;73.70;;;;;;6276521;22;20434;-78
2022/08/13 10:17:49;;;;;;;6.70;6.20;;;27.90;73.60;;;;;;6275683;22;20462;-78
2022/08/13 10:20:19;;;;;;;6.20;5.80;;;28.00;73.50;;;;;;6276702;22;20469;-78
2022/08/13 10:22:46;;;;;;;6.30;5.90;;;28.00;73.20;;;;;;6276224;22;20430;-77
2022/08/13 10:25:14;;;;;;;6.47;5.97;;;28.00;73.10;;;;;;6277106;22;20453;-76
2022/08/13 10:27:41;;;;;;;6.60;5.93;;;27.90;73.20;;;;;;6276308;22;20786;-77
2022/08/13 10:30:11;;;;;;;6.10;5.70;;;27.90;73.60;;;;;;6276817;22;20921;-77
2022/08/13 10:32:41;;;;;;;6.33;5.83;;;27.90;73.70;;;;;;6275836;22;20434;-76
2022/08/13 10:35:09;;;;;;;5.97;5.57;;;27.80;74.00;;;;;;6275041;22;20983;-75
2022/08/13 10:37:45;;;;;;;7.13;6.43;;;27.80;74.40;;;;;;6275499;22;20711;-75
2022/08/13 10:40:14;;;;;;;7.20;6.50;;;27.80;74.50;;;;;;6276892;22;20499;-78
2022/08/13 10:42:44;;;;;;;7.50;5.70;;;27.80;74.50;;;;;;6276623;22;20910;-78
2022/08/13 10:45:13;;;;;;;7.77;5.97;;;27.80;74.70;;;;;;6277746;22;20458;-78
2022/08/13 10:47:47;;;;;;;6.00;5.40;;;27.70;75.50;;;;;;6276874;22;20504;-76
2022/08/13 10:50:17;;;;;;;7.57;5.70;;;27.60;78.40;;;;;;6279266;22;20984;-77
2022/08/13 10:52:46;;;;;;;6.20;5.70;;;27.40;79.90;;;;;;6280710;22;20461;-78
2022/08/13 10:55:14;;;;;;;6.20;5.23;;;27.40;80.70;;;;;;6283963;22;20487;-78
2022/08/13 10:57:43;;;;;;;5.73;5.33;;;27.30;81.20;;;;;;6275821;22;20454;-76
2022/08/13 11:00:27;;;;;;;6.13;5.13;;;27.20;80.90;;;;;;6276372;22;20444;-79
2022/08/13 11:02:54;;;;;;;6.77;6.17;;;27.10;80.80;;;;;;6275639;22;20441;-78
2022/08/13 11:05:25;;;;;;;7.33;6.37;;;27.10;80.60;;;;;;6276187;22;20457;-77
2022/08/13 11:07:53;;;;;;;5.90;5.40;;;27.10;80.60;;;;;;6276484;22;20434;-77
2022/08/13 11:10:21;;;;;;;6.00;5.30;;;27.00;80.60;;;;;;6276356;22;20453;-78
2022/08/13 11:12:51;;;;;;;6.53;5.27;;;27.00;80.80;;;;;;6275773;22;20434;-79
2022/08/13 11:15:20;;;;;;;6.13;5.53;;;26.90;81.20;;;;;;6276241;22;20472;-75
2022/08/13 11:17:50;;;;;;;5.90;5.40;;;26.90;81.20;;;;;;6275852;22;20434;-78
2022/08/13 11:20:19;;;;;;;6.07;5.67;;;26.90;81.40;;;;;;6276345;22;20442;-78
2022/08/13 11:22:48;;;;;;;6.63;5.77;;;26.90;81.40;;;;;;6275678;22;20501;-78
2022/08/13 11:25:14;;;;;;;6.07;5.57;;;26.90;81.30;;;;;;6276056;22;20426;-78
2022/08/13 11:27:41;;;;;;;5.73;5.23;;;27.00;81.10;;;;;;6275628;22;20434;-78
2022/08/13 11:30:09;;;;;;;6.77;6.27;;;27.00;81.20;;;;;;6276345;22;20488;-78
2022/08/13 11:32:36;;;;;;;5.93;5.43;;;27.00;81.10;;;;;;6276481;22;20438;-77
2022/08/13 11:35:05;;;;;;;6.30;5.70;;;27.00;81.10;;;;;;6275121;22;20437;-78
2022/08/13 11:37:32;;;;;;;8.07;7.37;;;27.10;81.30;;;;;;6276422;22;20458;-76
2022/08/13 11:39:59;;;;;;;7.70;6.73;;;27.00;81.40;;;;;;6275130;22;20558;-75
2022/08/13 11:42:29;;;;;;;7.10;6.60;;;27.00;81.50;;;;;;6277233;22;20464;-78
2022/08/13 11:44:56;;;;;;;6.90;5.50;;;27.10;81.70;;;;;;6277940;22;20438;-78
2022/08/13 11:47:23;;;;;;;9.60;6.23;;;27.10;81.60;;;;;;6278349;22;20552;-77
2022/08/13 11:49:50;;;;;;;6.63;5.80;;;27.00;81.30;;;;;;6277773;22;20964;-77
2022/08/13 11:52:18;;;;;;;6.10;5.70;;;27.00;82.10;;;;;;6278296;22;20441;-77
2022/08/13 11:54:45;;;;;;;6.50;6.00;;;26.90;81.20;;;;;;6277635;22;20461;-77
2022/08/13 11:57:12;;;;;;;7.47;5.83;;;26.90;81.50;;;;;;6277546;22;20930;-77
2022/08/13 11:59:39;;;;;;;7.23;6.63;;;26.90;82.20;;;;;;6277909;22;20921;-76
2022/08/13 12:02:06;;;;;;;6.77;6.27;;;26.90;83.60;;;;;;6277139;22;20452;-78
2022/08/13 12:04:36;;;;;;;6.23;5.73;;;26.90;84.10;;;;;;6278291;22;20458;-78
2022/08/13 12:07:03;;;;;;;6.50;6.10;;;26.90;84.70;;;;;;6277461;22;20448;-78
2022/08/13 12:09:32;;;;;;;7.00;6.40;;;26.90;86.00;;;;;;6277911;22;20441;-78
2022/08/13 12:11:58;;;;;;;7.83;5.53;;;27.00;87.30;;;;;;6277408;22;20453;-78
2022/08/13 12:14:25;;;;;;;7.43;6.83;;;26.90;85.40;;;;;;6277766;22;20430;-78
2022/08/13 12:16:52;;;;;;;6.33;5.73;;;26.90;86.30;;;;;;6276764;22;20461;-76
2022/08/13 12:19:19;;;;;;;5.93;5.50;;;26.80;85.50;;;;;;6278122;22;20513;-76
2022/08/13 12:21:46;;;;;;;6.20;5.70;;;26.80;85.80;;;;;;6278220;22;20503;-76
2022/08/13 12:24:13;;;;;;;5.80;5.43;;;26.90;86.40;;;;;;6276478;22;20444;-75
2022/08/13 12:26:41;;;;;;;6.37;5.87;;;26.90;87.30;;;;;;6238071;22;20492;-76
2022/08/13 12:29:09;;;;;;;5.70;5.40;;;26.90;87.90;;;;;;6274800;22;20501;-79
2022/08/13 12:31:35;;;;;;;6.57;6.07;;;26.90;88.40;;;;;;6277380;22;20433;-78
2022/08/13 12:34:03;;;;;;;6.10;5.60;;;26.90;87.20;;;;;;6276229;22;20461;-79
2022/08/13 12:36:34;;;;;;;6.03;5.73;;;27.00;86.70;;;;;;6277376;22;20449;-77
2022/08/13 12:39:01;;;;;;;6.80;6.17;;;26.90;85.40;;;;;;6276591;22;20461;-77
2022/08/13 12:41:29;;;;;;;7.10;6.50;;;27.00;85.10;;;;;;6277651;22;20504;-78
2022/08/13 12:43:57;;;;;;;9.93;5.97;;;27.00;84.40;;;;;;6276792;22;20444;-79
2022/08/13 12:46:24;;;;;;;6.23;5.80;;;27.10;84.60;;;;;;6277349;22;20457;-77
2022/08/13 12:48:55;;;;;;;7.77;7.17;;;27.10;85.20;;;;;;6277283;22;20434;-76
2022/08/13 12:51:24;;;;;;;6.80;6.30;;;27.10;84.50;;;;;;6276994;22;20948;-78
2022/08/13 12:53:50;;;;;;;6.63;6.13;;;27.10;84.60;;;;;;6276823;22;20439;-78
2022/08/13 12:56:17;;;;;;;6.03;5.53;;;27.20;84.50;;;;;;6277121;22;20457;-78
2022/08/13 12:58:45;;;;;;;6.30;5.73;;;27.20;84.70;;;;;;6277309;22;20434;-78
2022/08/13 13:01:13;;;;;;;6.70;6.00;;;27.20;84.30;;;;;;6276378;22;20462;-78
2022/08/13 13:03:40;;;;;;;8.33;6.73;;;27.20;84.30;;;;;;6277638;22;20453;-78
2022/08/13 13:06:09;;;;;;;6.50;6.10;;;27.30;84.10;;;;;;6275945;22;20503;-78
2022/08/13 13:08:36;;;;;;;6.60;5.73;;;27.30;84.10;;;;;;6276562;22;20426;-77
2022/08/13 13:11:05;;;;;;;6.17;5.53;;;27.30;85.30;;;;;;6276837;22;20434;-77
2022/08/13 13:13:35;;;;;;;6.57;6.07;;;27.40;86.90;;;;;;6277720;22;20461;-77
2022/08/13 13:16:04;;;;;;;7.53;6.00;;;27.40;85.40;;;;;;6274573;22;20467;-75
2022/08/13 13:18:39;;;;;;;7.00;4.90;;;27.40;84.40;;;;;;6275982;22;20480;-76
2022/08/13 13:21:06;;;;;;;6.07;5.57;;;27.40;81.70;;;;;;6275834;22;20782;-78
2022/08/13 13:23:34;;;;;;;5.23;4.80;;;27.40;80.50;;;;;;6276433;22;20503;-77